sensor_id;sensor_type;location;lat;lon;timestamp;pressure;altitude;pressure_sealevel;temperature;humidity
32243;BME280;18731;42.830;24.390;2023-05-27T03:01:27;94551.75;;;12.90;92.86
32243;BME280;18731;42.830;24.390;2023-05-27T03:03:52;94556.13;;;12.82;93.20
32243;BME280;18731;42.830;24.390;2023-05-27T03:06:18;94553.09;;;12.84;92.89
32243;BME280;18731;42.830;24.390;2023-05-27T03:08:44;94563.44;;;12.98;92.53
32243;BME280;18731;42.830;24.390;2023-05-27T03:11:10;94559.44;;;13.04;92.29
32243;BME280;18731;42.830;24.390;2023-05-27T03:13:36;94564.53;;;13.09;91.82
32243;BME280;18731;42.830;24.390;2023-05-27T03:16:01;94555.97;;;13.03;91.64
32243;BME280;18731;42.830;24.390;2023-05-27T03:18:27;94556.31;;;13.02;92.04
32243;BME280;18731;42.830;24.390;2023-05-27T03:20:53;94552.94;;;13.05;91.72
32243;BME280;18731;42.830;24.390;2023-05-27T03:23:18;94553.81;;;13.09;91.65
32243;BME280;18731;42.830;24.390;2023-05-27T03:25:44;94546.03;;;13.04;91.68
32243;BME280;18731;42.830;24.390;2023-05-27T03:28:10;94543.78;;;13.06;92.00
32243;BME280;18731;42.830;24.390;2023-05-27T03:30:35;94551.38;;;13.04;92.57
32243;BME280;18731;42.830;24.390;2023-05-27T03:33:02;94556.16;;;13.10;92.61
32243;BME280;18731;42.830;24.390;2023-05-27T03:35:28;94522.03;;;12.95;92.46
32243;BME280;18731;42.830;24.390;2023-05-27T03:37:53;94560.28;;;13.20;91.94
32243;BME280;18731;42.830;24.390;2023-05-27T03:40:19;94570.09;;;13.16;92.24
32243;BME280;18731;42.830;24.390;2023-05-27T03:42:45;94563.06;;;13.11;92.64
32243;BME280;18731;42.830;24.390;2023-05-27T03:45:11;94570.22;;;13.19;93.12
32243;BME280;18731;42.830;24.390;2023-05-27T03:47:36;94565.06;;;13.27;92.74
32243;BME280;18731;42.830;24.390;2023-05-27T03:50:03;94568.50;;;13.27;92.58
32243;BME280;18731;42.830;24.390;2023-05-27T03:52:28;94482.06;;;12.74;92.83
32243;BME280;18731;42.830;24.390;2023-05-27T03:54:54;94564.47;;;13.33;92.86
32243;BME280;18731;42.830;24.390;2023-05-27T03:57:20;94572.50;;;13.33;92.49
32243;BME280;18731;42.830;24.390;2023-05-27T03:59:46;94564.81;;;13.32;92.79
32243;BME280;18731;42.830;24.390;2023-05-27T04:02:12;94576.16;;;13.41;92.59
32243;BME280;18731;42.830;24.390;2023-05-27T04:04:37;94568.88;;;13.41;92.14
32243;BME280;18731;42.830;24.390;2023-05-27T04:07:03;94572.53;;;13.49;92.12
32243;BME280;18731;42.830;24.390;2023-05-27T04:09:29;94576.00;;;13.49;92.28
32243;BME280;18731;42.830;24.390;2023-05-27T04:11:55;94569.94;;;13.52;92.39
32243;BME280;18731;42.830;24.390;2023-05-27T04:14:20;94564.16;;;13.50;92.52
32243;BME280;18731;42.830;24.390;2023-05-27T04:16:46;94565.00;;;13.55;92.48
32243;BME280;18731;42.830;24.390;2023-05-27T04:19:13;94470.56;;;13.02;92.20
32243;BME280;18731;42.830;24.390;2023-05-27T04:21:39;94559.84;;;13.62;92.21
32243;BME280;18731;42.830;24.390;2023-05-27T04:24:05;94570.47;;;13.74;92.20
32243;BME280;18731;42.830;24.390;2023-05-27T04:26:30;94565.03;;;13.70;92.42
32243;BME280;18731;42.830;24.390;2023-05-27T04:28:58;94572.91;;;13.79;91.67
32243;BME280;18731;42.830;24.390;2023-05-27T04:31:27;94583.13;;;13.89;91.32
32243;BME280;18731;42.830;24.390;2023-05-27T04:33:54;94585.13;;;13.92;91.36
32243;BME280;18731;42.830;24.390;2023-05-27T04:36:20;94574.38;;;13.92;91.21
32243;BME280;18731;42.830;24.390;2023-05-27T04:38:51;94582.59;;;13.99;91.02
32243;BME280;18731;42.830;24.390;2023-05-27T04:41:17;94587.19;;;13.99;90.87
32243;BME280;18731;42.830;24.390;2023-05-27T04:43:46;94586.16;;;14.03;90.52
32243;BME280;18731;42.830;24.390;2023-05-27T04:46:13;94585.97;;;13.96;90.30
32243;BME280;18731;42.830;24.390;2023-05-27T04:48:39;94590.91;;;13.94;90.11
32243;BME280;18731;42.830;24.390;2023-05-27T04:51:05;94583.81;;;13.86;90.49
32243;BME280;18731;42.830;24.390;2023-05-27T04:53:30;94585.13;;;13.92;90.23
32243;BME280;18731;42.830;24.390;2023-05-27T04:55:57;94592.72;;;14.06;90.53
32243;BME280;18731;42.830;24.390;2023-05-27T04:58:23;94588.56;;;14.08;90.99
32243;BME280;18731;42.830;24.390;2023-05-27T05:00:49;94587.19;;;14.14;91.17
32243;BME280;18731;42.830;24.390;2023-05-27T05:03:16;94593.78;;;14.17;90.37
32243;BME280;18731;42.830;24.390;2023-05-27T05:06:02;94591.09;;;14.17;90.01
32243;BME280;18731;42.830;24.390;2023-05-27T05:08:29;94594.38;;;14.26;90.52
32243;BME280;18731;42.830;24.390;2023-05-27T05:10:55;94596.88;;;14.35;91.40
32243;BME280;18731;42.830;24.390;2023-05-27T05:13:20;94590.03;;;14.37;91.26
32243;BME280;18731;42.830;24.390;2023-05-27T05:15:46;94594.47;;;14.45;90.31
32243;BME280;18731;42.830;24.390;2023-05-27T05:18:12;94600.78;;;14.53;89.93
32243;BME280;18731;42.830;24.390;2023-05-27T05:20:38;94602.47;;;14.61;89.58
32243;BME280;18731;42.830;24.390;2023-05-27T05:23:04;94603.00;;;14.67;89.92
32243;BME280;18731;42.830;24.390;2023-05-27T05:25:32;94594.75;;;14.75;89.95
32243;BME280;18731;42.830;24.390;2023-05-27T05:28:04;94597.16;;;14.80;89.33
32243;BME280;18731;42.830;24.390;2023-05-27T05:30:30;94605.09;;;14.93;89.30
32243;BME280;18731;42.830;24.390;2023-05-27T05:32:58;94593.06;;;15.06;89.59
32243;BME280;18731;42.830;24.390;2023-05-27T05:35:23;94601.13;;;15.25;89.72
32243;BME280;18731;42.830;24.390;2023-05-27T05:37:49;94604.25;;;15.47;88.58
32243;BME280;18731;42.830;24.390;2023-05-27T05:40:15;94603.44;;;15.62;86.83
32243;BME280;18731;42.830;24.390;2023-05-27T05:42:41;94604.53;;;15.80;86.28
32243;BME280;18731;42.830;24.390;2023-05-27T05:45:07;94599.69;;;15.89;83.54
32243;BME280;18731;42.830;24.390;2023-05-27T05:47:33;94603.47;;;16.07;83.93
32243;BME280;18731;42.830;24.390;2023-05-27T05:49:59;94599.34;;;16.14;83.63
32243;BME280;18731;42.830;24.390;2023-05-27T05:52:25;94597.78;;;16.13;82.54
32243;BME280;18731;42.830;24.390;2023-05-27T05:54:51;94589.75;;;16.16;81.70
32243;BME280;18731;42.830;24.390;2023-05-27T05:57:16;94610.44;;;16.35;82.62
32243;BME280;18731;42.830;24.390;2023-05-27T05:59:42;94609.38;;;16.39;82.73
32243;BME280;18731;42.830;24.390;2023-05-27T06:02:07;94608.59;;;16.39;81.77
32243;BME280;18731;42.830;24.390;2023-05-27T06:04:33;94613.91;;;16.35;80.72
32243;BME280;18731;42.830;24.390;2023-05-27T06:06:58;94621.59;;;16.33;81.38
32243;BME280;18731;42.830;24.390;2023-05-27T06:09:24;94616.13;;;16.30;82.21
32243;BME280;18731;42.830;24.390;2023-05-27T06:11:51;94618.41;;;16.28;82.59
32243;BME280;18731;42.830;24.390;2023-05-27T06:14:17;94620.81;;;16.33;81.47
32243;BME280;18731;42.830;24.390;2023-05-27T06:16:43;94620.63;;;16.22;81.84
32243;BME280;18731;42.830;24.390;2023-05-27T06:19:09;94627.63;;;16.27;82.50
32243;BME280;18731;42.830;24.390;2023-05-27T06:21:34;94636.00;;;16.22;82.52
32243;BME280;18731;42.830;24.390;2023-05-27T06:24:00;94636.56;;;16.08;83.70
32243;BME280;18731;42.830;24.390;2023-05-27T06:26:26;94634.34;;;16.14;84.29
32243;BME280;18731;42.830;24.390;2023-05-27T06:28:56;94637.44;;;16.16;84.11
32243;BME280;18731;42.830;24.390;2023-05-27T06:31:22;94634.88;;;16.23;84.27
32243;BME280;18731;42.830;24.390;2023-05-27T06:33:47;94640.69;;;16.25;83.32
32243;BME280;18731;42.830;24.390;2023-05-27T06:36:13;94633.63;;;16.17;83.35
32243;BME280;18731;42.830;24.390;2023-05-27T06:38:38;94635.34;;;16.05;84.45
32243;BME280;18731;42.830;24.390;2023-05-27T06:41:04;94624.94;;;16.04;84.52
32243;BME280;18731;42.830;24.390;2023-05-27T06:43:30;94630.09;;;16.13;85.51
32243;BME280;18731;42.830;24.390;2023-05-27T06:45:55;94638.16;;;16.13;85.12
32243;BME280;18731;42.830;24.390;2023-05-27T06:48:21;94641.94;;;16.08;84.64
32243;BME280;18731;42.830;24.390;2023-05-27T06:50:46;94640.13;;;15.93;84.08
32243;BME280;18731;42.830;24.390;2023-05-27T06:53:12;94633.72;;;15.78;86.57
32243;BME280;18731;42.830;24.390;2023-05-27T06:55:39;94649.16;;;15.81;86.06
32243;BME280;18731;42.830;24.390;2023-05-27T06:58:04;94645.19;;;15.75;88.78
32243;BME280;18731;42.830;24.390;2023-05-27T07:00:32;94643.06;;;15.65;89.98
32243;BME280;18731;42.830;24.390;2023-05-27T07:02:58;94643.69;;;15.58;90.19
32243;BME280;18731;42.830;24.390;2023-05-27T07:05:25;94660.00;;;15.65;88.93
32243;BME280;18731;42.830;24.390;2023-05-27T07:07:51;94639.19;;;15.62;89.03
32243;BME280;18731;42.830;24.390;2023-05-27T07:10:17;94656.66;;;15.72;87.02
32243;BME280;18731;42.830;24.390;2023-05-27T07:12:42;94657.94;;;15.78;87.02
32243;BME280;18731;42.830;24.390;2023-05-27T07:15:08;94654.94;;;15.83;86.84
32243;BME280;18731;42.830;24.390;2023-05-27T07:17:34;94661.03;;;15.80;87.87
32243;BME280;18731;42.830;24.390;2023-05-27T07:19:59;94656.81;;;15.79;86.51
32243;BME280;18731;42.830;24.390;2023-05-27T07:22:25;94659.00;;;15.73;87.23
32243;BME280;18731;42.830;24.390;2023-05-27T07:24:52;94653.50;;;15.66;87.02
32243;BME280;18731;42.830;24.390;2023-05-27T07:27:17;94658.09;;;15.66;89.53
32243;BME280;18731;42.830;24.390;2023-05-27T07:29:43;94662.16;;;15.60;90.37
32243;BME280;18731;42.830;24.390;2023-05-27T07:32:09;94661.28;;;15.56;90.32
32243;BME280;18731;42.830;24.390;2023-05-27T07:34:34;94657.25;;;15.62;90.71
32243;BME280;18731;42.830;24.390;2023-05-27T07:37:00;94665.53;;;15.57;91.04
32243;BME280;18731;42.830;24.390;2023-05-27T07:39:26;94662.34;;;15.51;91.26
32243;BME280;18731;42.830;24.390;2023-05-27T07:41:51;94659.84;;;15.58;90.61
32243;BME280;18731;42.830;24.390;2023-05-27T07:44:18;94654.63;;;15.65;90.26
32243;BME280;18731;42.830;24.390;2023-05-27T07:46:44;94658.22;;;15.73;90.06
32243;BME280;18731;42.830;24.390;2023-05-27T07:49:10;94672.94;;;15.79;89.29
32243;BME280;18731;42.830;24.390;2023-05-27T07:51:35;94663.03;;;15.83;90.10
32243;BME280;18731;42.830;24.390;2023-05-27T07:54:02;94658.66;;;15.75;89.25
32243;BME280;18731;42.830;24.390;2023-05-27T07:56:27;94664.38;;;15.73;90.14
32243;BME280;18731;42.830;24.390;2023-05-27T07:58:53;94672.09;;;15.75;90.52
32243;BME280;18731;42.830;24.390;2023-05-27T08:01:19;94676.28;;;15.72;90.16
32243;BME280;18731;42.830;24.390;2023-05-27T08:03:45;94672.75;;;15.68;90.92
32243;BME280;18731;42.830;24.390;2023-05-27T08:06:11;94673.53;;;15.69;91.16
32243;BME280;18731;42.830;24.390;2023-05-27T08:08:36;94677.06;;;15.73;91.58
32243;BME280;18731;42.830;24.390;2023-05-27T08:11:02;94649.91;;;15.43;93.02
32243;BME280;18731;42.830;24.390;2023-05-27T08:13:27;94685.69;;;15.63;93.46
32243;BME280;18731;42.830;24.390;2023-05-27T08:15:53;94680.56;;;15.58;92.96
32243;BME280;18731;42.830;24.390;2023-05-27T08:18:19;94688.81;;;15.65;92.56
32243;BME280;18731;42.830;24.390;2023-05-27T08:20:44;94688.66;;;15.58;92.21
32243;BME280;18731;42.830;24.390;2023-05-27T08:23:10;94696.88;;;15.65;92.46
32243;BME280;18731;42.830;24.390;2023-05-27T08:25:36;94686.84;;;15.62;92.47
32243;BME280;18731;42.830;24.390;2023-05-27T08:28:01;94689.59;;;15.65;92.74
32243;BME280;18731;42.830;24.390;2023-05-27T08:30:28;94693.34;;;15.61;93.38
32243;BME280;18731;42.830;24.390;2023-05-27T08:32:55;94690.66;;;15.61;93.70
32243;BME280;18731;42.830;24.390;2023-05-27T08:35:21;94689.38;;;15.74;93.69
32243;BME280;18731;42.830;24.390;2023-05-27T08:37:47;94696.81;;;15.81;93.17
32243;BME280;18731;42.830;24.390;2023-05-27T08:40:14;94690.00;;;15.87;92.58
32243;BME280;18731;42.830;24.390;2023-05-27T08:42:41;94676.13;;;15.85;92.74
32243;BME280;18731;42.830;24.390;2023-05-27T08:45:10;94687.94;;;15.99;94.15
32243;BME280;18731;42.830;24.390;2023-05-27T08:47:38;94685.38;;;16.06;94.08
32243;BME280;18731;42.830;24.390;2023-05-27T08:50:05;94684.44;;;16.18;93.57
32243;BME280;18731;42.830;24.390;2023-05-27T08:52:33;94684.59;;;16.29;91.63
32243;BME280;18731;42.830;24.390;2023-05-27T08:54:59;94684.72;;;16.36;89.63
32243;BME280;18731;42.830;24.390;2023-05-27T08:57:31;94686.75;;;16.43;89.81
32243;BME280;18731;42.830;24.390;2023-05-27T08:59:58;94684.97;;;16.50;89.96
32243;BME280;18731;42.830;24.390;2023-05-27T09:02:24;94685.75;;;16.51;88.59
32243;BME280;18731;42.830;24.390;2023-05-27T09:04:50;94685.09;;;16.57;88.17
32243;BME280;18731;42.830;24.390;2023-05-27T09:07:17;94681.66;;;16.60;87.65
32243;BME280;18731;42.830;24.390;2023-05-27T09:09:57;94675.63;;;16.67;88.03
32243;BME280;18731;42.830;24.390;2023-05-27T09:12:24;94677.31;;;16.75;87.95
32243;BME280;18731;42.830;24.390;2023-05-27T09:14:51;94680.88;;;16.83;89.04
32243;BME280;18731;42.830;24.390;2023-05-27T09:17:17;94675.97;;;16.88;87.84
32243;BME280;18731;42.830;24.390;2023-05-27T09:19:44;94678.59;;;16.85;87.37
32243;BME280;18731;42.830;24.390;2023-05-27T09:22:31;94678.72;;;16.92;86.87
32243;BME280;18731;42.830;24.390;2023-05-27T09:24:57;94691.00;;;16.89;87.75
32243;BME280;18731;42.830;24.390;2023-05-27T09:27:31;94681.19;;;16.78;86.00
32243;BME280;18731;42.830;24.390;2023-05-27T09:30:05;94680.38;;;16.74;86.31
32243;BME280;18731;42.830;24.390;2023-05-27T09:32:32;94668.44;;;16.75;87.52
32243;BME280;18731;42.830;24.390;2023-05-27T09:34:59;94673.72;;;16.94;88.47
32243;BME280;18731;42.830;24.390;2023-05-27T09:39:58;94676.56;;;17.04;91.04
32243;BME280;18731;42.830;24.390;2023-05-27T09:42:24;94660.34;;;17.01;89.59
32243;BME280;18731;42.830;24.390;2023-05-27T09:44:50;94663.69;;;17.21;89.79
32243;BME280;18731;42.830;24.390;2023-05-27T09:47:16;94659.34;;;17.43;89.04
32243;BME280;18731;42.830;24.390;2023-05-27T09:49:45;94655.78;;;17.65;87.90
32243;BME280;18731;42.830;24.390;2023-05-27T09:52:15;94652.00;;;17.70;86.93
32243;BME280;18731;42.830;24.390;2023-05-27T09:54:46;94658.00;;;17.89;83.72
32243;BME280;18731;42.830;24.390;2023-05-27T09:57:13;94655.44;;;18.04;79.36
32243;BME280;18731;42.830;24.390;2023-05-27T09:59:40;94657.31;;;18.37;77.81
32243;BME280;18731;42.830;24.390;2023-05-27T10:02:07;94642.59;;;18.30;76.67
32243;BME280;18731;42.830;24.390;2023-05-27T10:04:33;94644.84;;;18.21;75.67
32243;BME280;18731;42.830;24.390;2023-05-27T10:07:02;94649.34;;;18.10;76.03
32243;BME280;18731;42.830;24.390;2023-05-27T10:09:27;94636.34;;;18.23;74.87
32243;BME280;18731;42.830;24.390;2023-05-27T10:11:53;94644.69;;;18.51;75.18
32243;BME280;18731;42.830;24.390;2023-05-27T10:14:20;94637.09;;;18.64;75.39
32243;BME280;18731;42.830;24.390;2023-05-27T10:16:53;94635.28;;;18.79;72.48
32243;BME280;18731;42.830;24.390;2023-05-27T10:19:21;94640.84;;;19.04;73.91
32243;BME280;18731;42.830;24.390;2023-05-27T10:21:47;94641.66;;;19.11;70.72
32243;BME280;18731;42.830;24.390;2023-05-27T10:24:13;94609.16;;;19.01;73.09
32243;BME280;18731;42.830;24.390;2023-05-27T10:26:40;94638.66;;;19.27;75.97
32243;BME280;18731;42.830;24.390;2023-05-27T10:29:14;94635.97;;;19.31;74.14
32243;BME280;18731;42.830;24.390;2023-05-27T10:31:46;94640.25;;;19.35;72.48
32243;BME280;18731;42.830;24.390;2023-05-27T10:34:12;94629.44;;;19.39;72.07
32243;BME280;18731;42.830;24.390;2023-05-27T10:36:38;94614.38;;;19.45;72.74
32243;BME280;18731;42.830;24.390;2023-05-27T10:39:15;94612.78;;;19.33;74.58
32243;BME280;18731;42.830;24.390;2023-05-27T10:41:51;94611.72;;;19.55;70.41
32243;BME280;18731;42.830;24.390;2023-05-27T10:44:35;94611.44;;;19.85;69.30
32243;BME280;18731;42.830;24.390;2023-05-27T10:47:14;94608.00;;;20.06;70.63
32243;BME280;18731;42.830;24.390;2023-05-27T10:49:44;94596.34;;;19.95;65.43
32243;BME280;18731;42.830;24.390;2023-05-27T10:52:16;94594.44;;;20.13;64.18
32243;BME280;18731;42.830;24.390;2023-05-27T10:54:46;94596.41;;;20.27;61.59
32243;BME280;18731;42.830;24.390;2023-05-27T10:57:13;94597.97;;;20.49;65.37
32243;BME280;18731;42.830;24.390;2023-05-27T11:00:04;94591.38;;;20.61;61.29
32243;BME280;18731;42.830;24.390;2023-05-27T11:02:36;94594.06;;;20.79;58.49
32243;BME280;18731;42.830;24.390;2023-05-27T11:05:13;94585.16;;;20.96;58.68
32243;BME280;18731;42.830;24.390;2023-05-27T11:07:40;94555.66;;;21.05;60.49
32243;BME280;18731;42.830;24.390;2023-05-27T11:10:07;94587.81;;;21.25;59.36
32243;BME280;18731;42.830;24.390;2023-05-27T11:12:34;94576.59;;;21.01;57.54
32243;BME280;18731;42.830;24.390;2023-05-27T11:14:59;94568.06;;;21.06;57.29
32243;BME280;18731;42.830;24.390;2023-05-27T11:17:25;94581.97;;;21.33;55.41
32243;BME280;18731;42.830;24.390;2023-05-27T11:19:51;94574.03;;;21.67;55.32
32243;BME280;18731;42.830;24.390;2023-05-27T11:22:18;94564.09;;;21.36;53.81
32243;BME280;18731;42.830;24.390;2023-05-27T11:25:00;94553.56;;;21.52;58.47
32243;BME280;18731;42.830;24.390;2023-05-27T11:27:34;94558.03;;;21.83;57.61
32243;BME280;18731;42.830;24.390;2023-05-27T11:30:07;94549.22;;;22.24;57.56
32243;BME280;18731;42.830;24.390;2023-05-27T11:32:36;94545.03;;;22.61;54.62
32243;BME280;18731;42.830;24.390;2023-05-27T11:35:02;94549.53;;;22.82;55.78
32243;BME280;18731;42.830;24.390;2023-05-27T11:37:33;94536.84;;;23.02;52.46
32243;BME280;18731;42.830;24.390;2023-05-27T11:39:58;94540.34;;;23.36;56.61
32243;BME280;18731;42.830;24.390;2023-05-27T11:42:25;94521.97;;;23.75;50.56
32243;BME280;18731;42.830;24.390;2023-05-27T11:44:54;94445.72;;;23.71;55.53
32243;BME280;18731;42.830;24.390;2023-05-27T11:47:21;94521.84;;;24.35;49.14
32243;BME280;18731;42.830;24.390;2023-05-27T11:49:48;94512.06;;;24.61;54.54
32243;BME280;18731;42.830;24.390;2023-05-27T11:52:14;94507.84;;;24.33;50.02
32243;BME280;18731;42.830;24.390;2023-05-27T11:54:40;94512.97;;;24.04;47.96
32243;BME280;18731;42.830;24.390;2023-05-27T11:57:06;94507.06;;;23.83;49.84
32243;BME280;18731;42.830;24.390;2023-05-27T11:59:34;94499.97;;;23.89;52.05
32243;BME280;18731;42.830;24.390;2023-05-27T12:02:00;94501.03;;;23.95;53.75
32243;BME280;18731;42.830;24.390;2023-05-27T12:04:26;94496.53;;;23.85;51.97
32243;BME280;18731;42.830;24.390;2023-05-27T12:06:53;94488.25;;;23.65;53.55
32243;BME280;18731;42.830;24.390;2023-05-27T12:09:19;94484.53;;;23.52;52.93
32243;BME280;18731;42.830;24.390;2023-05-27T12:11:45;94481.78;;;23.55;54.86
32243;BME280;18731;42.830;24.390;2023-05-27T12:14:11;94479.78;;;23.59;54.39
32243;BME280;18731;42.830;24.390;2023-05-27T12:16:36;94464.59;;;23.58;51.40
32243;BME280;18731;42.830;24.390;2023-05-27T12:19:02;94477.59;;;23.74;50.15
32243;BME280;18731;42.830;24.390;2023-05-27T12:21:28;94465.81;;;23.23;51.55
32243;BME280;18731;42.830;24.390;2023-05-27T12:23:54;94468.91;;;22.57;52.58
32243;BME280;18731;42.830;24.390;2023-05-27T12:26:20;94469.66;;;22.20;54.20
32243;BME280;18731;42.830;24.390;2023-05-27T12:28:46;94466.19;;;22.16;54.04
32243;BME280;18731;42.830;24.390;2023-05-27T12:31:11;94459.06;;;22.29;54.95
32243;BME280;18731;42.830;24.390;2023-05-27T12:33:37;94465.59;;;22.39;52.53
32243;BME280;18731;42.830;24.390;2023-05-27T12:36:03;94456.53;;;22.49;54.81
32243;BME280;18731;42.830;24.390;2023-05-27T12:38:32;94460.38;;;22.55;54.84
32243;BME280;18731;42.830;24.390;2023-05-27T12:40:59;94457.25;;;22.57;55.77
32243;BME280;18731;42.830;24.390;2023-05-27T12:43:25;94450.25;;;22.56;56.40
32243;BME280;18731;42.830;24.390;2023-05-27T12:45:51;94443.69;;;22.53;56.30
32243;BME280;18731;42.830;24.390;2023-05-27T12:48:17;94444.00;;;22.59;55.65
32243;BME280;18731;42.830;24.390;2023-05-27T12:50:43;94446.22;;;22.71;54.19
32243;BME280;18731;42.830;24.390;2023-05-27T12:53:09;94433.28;;;22.82;53.39
32243;BME280;18731;42.830;24.390;2023-05-27T12:55:36;94431.78;;;22.74;54.05
32243;BME280;18731;42.830;24.390;2023-05-27T12:58:02;94409.31;;;23.00;54.84
32243;BME280;18731;42.830;24.390;2023-05-27T13:00:28;94425.78;;;23.20;53.85
32243;BME280;18731;42.830;24.390;2023-05-27T13:02:54;94422.47;;;23.36;52.39
32243;BME280;18731;42.830;24.390;2023-05-27T13:05:20;94415.81;;;23.37;51.43
32243;BME280;18731;42.830;24.390;2023-05-27T13:10:23;94402.78;;;23.55;50.08
32243;BME280;18731;42.830;24.390;2023-05-27T13:12:49;94401.84;;;23.89;48.88
32243;BME280;18731;42.830;24.390;2023-05-27T13:15:14;94399.59;;;24.30;47.15
32243;BME280;18731;42.830;24.390;2023-05-27T13:17:43;94391.47;;;24.47;47.24
32243;BME280;18731;42.830;24.390;2023-05-27T13:20:10;94398.75;;;24.33;45.84
32243;BME280;18731;42.830;24.390;2023-05-27T13:22:36;94393.88;;;24.45;46.95
32243;BME280;18731;42.830;24.390;2023-05-27T13:25:03;94383.31;;;24.23;47.95
32243;BME280;18731;42.830;24.390;2023-05-27T13:27:30;94368.97;;;24.43;50.97
32243;BME280;18731;42.830;24.390;2023-05-27T13:29:56;94384.16;;;24.63;46.61
32243;BME280;18731;42.830;24.390;2023-05-27T13:32:22;94374.28;;;24.50;46.26
32243;BME280;18731;42.830;24.390;2023-05-27T13:34:47;94377.28;;;24.35;45.40
32243;BME280;18731;42.830;24.390;2023-05-27T13:37:13;94371.06;;;24.12;46.53
32243;BME280;18731;42.830;24.390;2023-05-27T13:39:39;94375.75;;;24.11;47.94
32243;BME280;18731;42.830;24.390;2023-05-27T13:42:11;94377.34;;;24.32;48.99
32243;BME280;18731;42.830;24.390;2023-05-27T13:44:36;94374.34;;;24.66;48.49
32243;BME280;18731;42.830;24.390;2023-05-27T13:47:02;94364.03;;;24.93;50.27
32243;BME280;18731;42.830;24.390;2023-05-27T13:49:28;94367.66;;;25.07;45.82
32243;BME280;18731;42.830;24.390;2023-05-27T13:51:54;94355.47;;;25.11;46.26
32243;BME280;18731;42.830;24.390;2023-05-27T13:54:20;94359.97;;;25.02;45.49
32243;BME280;18731;42.830;24.390;2023-05-27T13:56:46;94370.13;;;24.81;43.91
32243;BME280;18731;42.830;24.390;2023-05-27T13:59:12;94365.34;;;24.26;44.11
32243;BME280;18731;42.830;24.390;2023-05-27T14:01:39;94364.38;;;24.16;44.35
32243;BME280;18731;42.830;24.390;2023-05-27T14:04:06;94372.75;;;24.05;45.84
32243;BME280;18731;42.830;24.390;2023-05-27T14:06:32;94363.69;;;23.89;51.31
32243;BME280;18731;42.830;24.390;2023-05-27T14:08:58;94366.13;;;23.29;53.51
32243;BME280;18731;42.830;24.390;2023-05-27T14:11:24;94361.09;;;23.01;54.70
32243;BME280;18731;42.830;24.390;2023-05-27T14:13:49;94356.84;;;23.00;56.30
32243;BME280;18731;42.830;24.390;2023-05-27T14:16:16;94345.69;;;22.91;56.17
32243;BME280;18731;42.830;24.390;2023-05-27T14:18:43;94351.81;;;22.98;53.67
32243;BME280;18731;42.830;24.390;2023-05-27T14:21:09;94336.91;;;22.45;52.38
32243;BME280;18731;42.830;24.390;2023-05-27T14:23:35;94345.72;;;22.57;52.66
32243;BME280;18731;42.830;24.390;2023-05-27T14:26:01;94333.75;;;22.51;52.04
32243;BME280;18731;42.830;24.390;2023-05-27T14:28:26;94339.91;;;22.55;53.94
32243;BME280;18731;42.830;24.390;2023-05-27T14:30:52;94335.38;;;22.44;53.08
32243;BME280;18731;42.830;24.390;2023-05-27T14:33:18;94333.63;;;22.61;52.82
32243;BME280;18731;42.830;24.390;2023-05-27T14:35:44;94332.19;;;22.84;52.06
32243;BME280;18731;42.830;24.390;2023-05-27T14:38:12;94349.91;;;22.65;52.25
32243;BME280;18731;42.830;24.390;2023-05-27T14:40:38;94322.38;;;22.29;51.55
32243;BME280;18731;42.830;24.390;2023-05-27T14:43:05;94359.94;;;22.00;54.46
32243;BME280;18731;42.830;24.390;2023-05-27T14:45:34;94346.44;;;21.48;55.28
32243;BME280;18731;42.830;24.390;2023-05-27T14:48:00;94361.03;;;21.09;57.08
32243;BME280;18731;42.830;24.390;2023-05-27T14:50:26;94355.28;;;21.00;59.15
32243;BME280;18731;42.830;24.390;2023-05-27T14:52:53;94352.28;;;20.77;60.18
32243;BME280;18731;42.830;24.390;2023-05-27T14:55:19;94353.94;;;20.57;64.45
32243;BME280;18731;42.830;24.390;2023-05-27T14:57:45;94343.91;;;20.46;64.65
32243;BME280;18731;42.830;24.390;2023-05-27T15:00:12;94367.06;;;20.62;66.07
32243;BME280;18731;42.830;24.390;2023-05-27T15:02:38;94352.72;;;20.65;64.99
32243;BME280;18731;42.830;24.390;2023-05-27T15:05:05;94365.47;;;20.75;67.07
32243;BME280;18731;42.830;24.390;2023-05-27T15:07:35;94364.75;;;20.64;67.82
32243;BME280;18731;42.830;24.390;2023-05-27T15:10:02;94353.59;;;20.40;68.62
32243;BME280;18731;42.830;24.390;2023-05-27T15:12:44;94346.34;;;20.09;70.08
32243;BME280;18731;42.830;24.390;2023-05-27T15:15:13;94358.72;;;20.10;71.58
32243;BME280;18731;42.830;24.390;2023-05-27T15:17:40;94364.50;;;20.12;73.49
32243;BME280;18731;42.830;24.390;2023-05-27T15:20:08;94361.81;;;20.12;72.95
32243;BME280;18731;42.830;24.390;2023-05-27T15:22:33;94349.78;;;20.16;71.19
32243;BME280;18731;42.830;24.390;2023-05-27T15:25:00;94366.00;;;20.27;73.01
32243;BME280;18731;42.830;24.390;2023-05-27T15:27:26;94361.78;;;20.19;67.38
32243;BME280;18731;42.830;24.390;2023-05-27T15:29:52;94370.69;;;20.16;67.30
32243;BME280;18731;42.830;24.390;2023-05-27T15:32:18;94365.66;;;20.18;69.87
32243;BME280;18731;42.830;24.390;2023-05-27T15:34:43;94377.28;;;20.15;74.32
32243;BME280;18731;42.830;24.390;2023-05-27T15:37:10;94351.78;;;19.91;74.58
32243;BME280;18731;42.830;24.390;2023-05-27T15:39:39;94364.91;;;20.03;75.75
32243;BME280;18731;42.830;24.390;2023-05-27T15:42:05;94369.16;;;20.08;76.93
32243;BME280;18731;42.830;24.390;2023-05-27T15:44:32;94373.09;;;19.85;73.51
32243;BME280;18731;42.830;24.390;2023-05-27T15:46:58;94375.03;;;19.60;72.08
32243;BME280;18731;42.830;24.390;2023-05-27T15:49:23;94368.44;;;19.33;74.56
32243;BME280;18731;42.830;24.390;2023-05-27T15:51:49;94362.25;;;19.28;75.73
32243;BME280;18731;42.830;24.390;2023-05-27T15:54:15;94367.66;;;19.50;76.04